Time;durP1;ratioP1;P1;durP2;ratioP2;P2;SDS_P1;SDS_P2;PMS_P1;PMS_P2;Temp;Humidity;BMP_temperature;BMP_pressure;BME280_temperature;BME280_humidity;BME280_pressure;Samples;Min_cycle;Max_cycle;Signal;HPM_P1;HPM_P2
2022/10/05 00:02:19;;;;;;;;;;;19.10;61.90;;;;;;5075807;28;19942;-68
2022/10/05 00:04:45;;;;;;;;;;;19.10;62.00;;;;;;5093531;28;20287;-68
2022/10/05 00:07:13;;;;;;;;;;;19.10;62.00;;;;;;5075817;28;19924;-68
2022/10/05 00:09:38;;;;;;;;;;;19.10;62.00;;;;;;5093339;28;19920;-68
2022/10/05 00:12:13;;;;;;;;;;;19.10;62.00;;;;;;5075585;28;20387;-67
2022/10/05 00:14:38;;;;;;;;;;;19.10;62.00;;;;;;5075216;28;19927;-69
2022/10/05 00:17:04;;;;;;;;;;;19.10;62.00;;;;;;5093250;28;19920;-68
2022/10/05 00:19:31;;;;;;;;;;;19.10;62.00;;;;;;5075163;28;20266;-68
2022/10/05 00:21:58;;;;;;;;;;;19.10;62.00;;;;;;5075141;28;19920;-68
2022/10/05 00:24:24;;;;;;;;;;;19.10;62.00;;;;;;5092838;28;19957;-68
2022/10/05 00:26:50;;;;;;;;;;;19.10;62.00;;;;;;5093154;28;20010;-68
2022/10/05 00:29:19;;;;;;;;;;;19.10;62.10;;;;;;5074839;28;20354;-68
2022/10/05 00:31:45;;;;;;;;;;;19.10;62.10;;;;;;5075170;28;19932;-68
2022/10/05 00:34:10;;;;;;;;;;;19.10;62.10;;;;;;5093010;28;19943;-68
2022/10/05 00:36:37;;;;;;;;;;;19.10;62.00;;;;;;5093062;28;19920;-68
2022/10/05 00:39:02;;;;;;;;;;;19.10;62.10;;;;;;5092884;28;20300;-68
2022/10/05 00:41:35;;;;;;;;;;;19.10;62.10;;;;;;5091600;28;19926;-68
2022/10/05 00:55:06;;;;;;;;;;;19.10;62.10;;;;;;5089922;28;19913;-68
2022/10/05 00:57:43;;;;;;;;;;;19.10;62.10;;;;;;5105651;28;19927;-68
2022/10/05 01:00:12;;;;;;;;;;;19.10;62.10;;;;;;5088474;28;19920;-68
2022/10/05 01:05:39;;;;;;;;;;;19.10;62.20;;;;;;5089891;28;19912;-67
2022/10/05 01:08:20;;;;;;;;;;;19.00;62.10;;;;;;5088396;28;19932;-68
2022/10/05 01:10:49;;;;;;;;;;;19.10;62.20;;;;;;5088809;28;19925;-67
2022/10/05 01:16:16;;;;;;;;;;;19.10;62.30;;;;;;5127804;27;1858768;-68
2022/10/05 01:19:01;;;;;;;;;;;19.10;62.30;;;;;;5174265;27;19919;-68
2022/10/05 01:21:31;;;;;;;;;;;19.10;62.30;;;;;;5174203;27;19919;-67
2022/10/05 01:37:55;;;;;;;;;;;19.00;62.20;;;;;;5089867;28;19912;-68
2022/10/05 01:40:30;;;;;;;;;;;19.10;62.30;;;;;;5090087;28;20335;-68
2022/10/05 01:45:42;;;;;;;;;;;19.00;62.30;;;;;;5089980;28;19912;-68
2022/10/05 01:48:19;;;;;;;;;;;19.00;62.30;;;;;;5087851;28;19924;-68
2022/10/05 01:50:51;;;;;;;;;;;19.00;62.30;;;;;;5088315;28;19920;-68
2022/10/05 01:56:05;;;;;;;;;;;19.00;62.40;;;;;;5127873;27;1859271;-68
2022/10/05 01:58:37;;;;;;;;;;;19.00;62.40;;;;;;5193233;27;19925;-68
2022/10/05 02:01:06;;;;;;;;;;;19.00;62.40;;;;;;5174395;27;20197;-68
2022/10/05 02:03:36;;;;;;;;;;;19.00;62.40;;;;;;5174286;27;19922;-68
2022/10/05 02:06:08;;;;;;;;;;;19.00;62.40;;;;;;5174586;27;19945;-68
2022/10/05 02:08:38;;;;;;;;;;;19.00;62.40;;;;;;5174614;27;19967;-68
2022/10/05 02:11:05;;;;;;;;;;;19.00;62.40;;;;;;5174511;27;19919;-68
2022/10/05 02:13:34;;;;;;;;;;;19.00;62.40;;;;;;5173938;27;20440;-67
2022/10/05 02:16:02;;;;;;;;;;;19.00;62.40;;;;;;5193102;27;19918;-68
2022/10/05 02:18:37;;;;;;;;;;;19.00;62.40;;;;;;5174005;27;19918;-68
2022/10/05 02:21:03;;;;;;;;;;;19.00;62.40;;;;;;5174039;27;20397;-68
2022/10/05 02:23:31;;;;;;;;;;;19.00;62.40;;;;;;5174226;27;19925;-68
2022/10/05 02:25:57;;;;;;;;;;;19.00;62.40;;;;;;5192714;27;19919;-68
2022/10/05 02:31:10;;;;;;;;;;;19.00;62.50;;;;;;5089806;28;19983;-68
2022/10/05 02:33:36;;;;;;;;;;;18.90;62.40;;;;;;5088807;28;19989;-68
2022/10/05 02:36:22;;;;;;;;;;;19.00;62.40;;;;;;5088589;28;19920;-68
2022/10/05 02:38:52;;;;;;;;;;;19.00;62.40;;;;;;5105163;28;19963;-67
2022/10/05 02:41:38;;;;;;;;;;;19.00;62.50;;;;;;5088465;28;19946;-68
2022/10/05 02:55:18;;;;;;;;;;;19.10;62.60;;;;;;5110159;27;19933;-68
2022/10/05 03:00:30;;;;;;;;;;;18.90;62.50;;;;;;5089886;28;19916;-70
2022/10/05 03:05:59;;;;;;;;;;;18.90;62.60;;;;;;5089812;28;19912;-70
2022/10/05 03:08:28;;;;;;;;;;;18.90;62.60;;;;;;5088564;28;19974;-68
2022/10/05 03:11:13;;;;;;;;;;;18.90;62.60;;;;;;5088496;28;19973;-68
2022/10/05 03:27:16;;;;;;;;;;;18.90;62.60;;;;;;5089904;28;20309;-68
2022/10/05 03:30:01;;;;;;;;;;;18.90;62.60;;;;;;5089918;28;19920;-68
2022/10/05 03:32:38;;;;;;;;;;;18.90;62.70;;;;;;5088424;28;19961;-68
2022/10/05 03:35:14;;;;;;;;;;;18.90;62.70;;;;;;5088477;28;19982;-68
2022/10/05 03:37:47;;;;;;;;;;;18.90;62.70;;;;;;5088483;28;19970;-68
2022/10/05 03:40:32;;;;;;;;;;;18.90;62.70;;;;;;5088599;28;19928;-68
2022/10/05 03:45:40;;;;;;;;;;;18.90;62.60;;;;;;5129756;27;1852424;-68
2022/10/05 03:50:50;;;;;;;;;;;18.90;62.70;;;;;;5127677;27;1861187;-68
2022/10/05 03:53:18;;;;;;;;;;;18.90;62.70;;;;;;5174396;27;19971;-68
2022/10/05 03:55:54;;;;;;;;;;;18.90;62.70;;;;;;5174762;27;19925;-68
2022/10/05 03:58:38;;;;;;;;;;;18.90;62.70;;;;;;5174651;27;20273;-68
2022/10/05 04:01:08;;;;;;;;;;;18.90;62.70;;;;;;5174281;27;19950;-68
2022/10/05 04:06:17;;;;;;;;;;;18.90;62.70;;;;;;5089929;28;19912;-70
2022/10/05 04:08:47;;;;;;;;;;;18.90;62.70;;;;;;5088611;28;20442;-68
2022/10/05 04:11:15;;;;;;;;;;;18.90;62.70;;;;;;5089741;28;19944;-68
2022/10/05 04:16:26;;;;;;;;;;;18.80;62.70;;;;;;5130724;27;20434;-68
2022/10/05 04:18:59;;;;;;;;;;;18.90;62.70;;;;;;5129490;28;19946;-68
2022/10/05 04:21:29;;;;;;;;;;;18.90;62.70;;;;;;5129647;28;19920;-68
2022/10/05 04:24:05;;;;;;;;;;;18.90;62.80;;;;;;5129362;28;19923;-68
2022/10/05 04:26:34;;;;;;;;;;;18.90;62.80;;;;;;5130653;27;19941;-68
2022/10/05 04:29:03;;;;;;;;;;;18.90;62.80;;;;;;5129504;28;20317;-68
2022/10/05 04:31:49;;;;;;;;;;;18.90;62.80;;;;;;5129491;28;19920;-68
2022/10/05 04:34:24;;;;;;;;;;;18.90;62.80;;;;;;5128909;28;19958;-68
2022/10/05 04:36:56;;;;;;;;;;;18.90;62.80;;;;;;5130480;27;19955;-68
2022/10/05 04:39:31;;;;;;;;;;;18.90;62.80;;;;;;5130524;27;20006;-68
2022/10/05 04:42:03;;;;;;;;;;;18.80;62.80;;;;;;5130311;27;19920;-68
2022/10/05 04:47:28;;;;;;;;;;;18.80;62.80;;;;;;5089945;28;20269;-68
2022/10/05 04:53:10;;;;;;;;;;;18.80;62.80;;;;;;5089784;28;19916;-70
2022/10/05 04:55:49;;;;;;;;;;;18.90;62.80;;;;;;5088838;28;19928;-68
2022/10/05 04:58:34;;;;;;;;;;;18.80;62.80;;;;;;5088523;28;19924;-68
2022/10/05 05:06:33;;;;;;;;;;;18.80;62.80;;;;;;5127749;27;1861297;-68
2022/10/05 05:09:18;;;;;;;;;;;18.80;62.90;;;;;;5174719;27;19919;-68
2022/10/05 05:11:52;;;;;;;;;;;18.80;62.90;;;;;;5174297;27;19953;-68
2022/10/05 05:14:38;;;;;;;;;;;18.80;62.90;;;;;;5174292;27;19918;-68
2022/10/05 05:17:12;;;;;;;;;;;18.80;62.90;;;;;;5173998;27;19918;-68
2022/10/05 05:19:40;;;;;;;;;;;18.80;62.90;;;;;;5174477;27;19923;-70
2022/10/05 05:22:07;;;;;;;;;;;18.80;62.90;;;;;;5174458;27;19987;-69
2022/10/05 05:27:40;;;;;;;;;;;18.80;62.90;;;;;;5090341;28;19912;-68
2022/10/05 05:30:26;;;;;;;;;;;18.80;62.90;;;;;;5088281;28;19920;-68
2022/10/05 05:38:27;;;;;;;;;;;18.80;62.90;;;;;;5107877;27;19920;-70
2022/10/05 05:43:49;;;;;;;;;;;18.90;63.60;;;;;;5087683;28;19917;-66
2022/10/05 05:46:21;;;;;;;;;;;18.90;63.70;;;;;;5088442;28;19926;-68
2022/10/05 05:48:47;;;;;;;;;;;19.00;63.70;;;;;;5068043;28;19959;-70
2022/10/05 05:51:18;;;;;;;;;;;19.00;63.80;;;;;;5077479;28;19925;-67
2022/10/05 05:53:45;;;;;;;;;;;19.10;64.00;;;;;;5081960;28;20292;-67
2022/10/05 05:56:12;;;;;;;;;;;19.10;63.60;;;;;;5062711;28;19960;-67
2022/10/05 05:58:42;;;;;;;;;;;19.20;63.60;;;;;;5061099;28;19924;-66
2022/10/05 06:01:26;;;;;;;;;;;19.20;63.60;;;;;;5053679;28;19929;-66
2022/10/05 06:03:54;;;;;;;;;;;19.20;63.60;;;;;;5048348;28;19940;-66
2022/10/05 06:06:23;;;;;;;;;;;19.20;63.50;;;;;;5047269;28;19924;-64
2022/10/05 06:08:50;;;;;;;;;;;19.20;63.50;;;;;;5046147;28;20004;-66
2022/10/05 06:11:19;;;;;;;;;;;19.30;63.40;;;;;;5048471;28;20343;-66
2022/10/05 06:13:45;;;;;;;;;;;19.30;63.40;;;;;;5055031;28;19939;-66
2022/10/05 06:18:53;;;;;;;;;;;19.30;63.30;;;;;;5070886;28;20243;-66
2022/10/05 06:21:39;;;;;;;;;;;19.20;63.30;;;;;;5074145;28;20825;-64
2022/10/05 06:24:14;;;;;;;;;;;19.20;63.30;;;;;;5086410;28;19951;-66
2022/10/05 06:27:00;;;;;;;;;;;19.30;63.50;;;;;;5068069;28;20012;-66
2022/10/05 06:29:41;;;;;;;;;;;19.30;63.50;;;;;;5085690;28;19964;-66
2022/10/05 06:32:18;;;;;;;;;;;19.30;63.50;;;;;;5070297;28;20292;-66
2022/10/05 06:37:32;;;;;;;;;;;19.30;63.60;;;;;;5072535;27;19920;-66
2022/10/05 06:40:16;;;;;;;;;;;19.30;63.50;;;;;;5074002;28;19925;-68
2022/10/05 06:42:52;;;;;;;;;;;19.30;63.50;;;;;;5109632;28;19932;-69
2022/10/05 06:50:42;;;;;;;;;;;19.40;63.80;;;;;;5084472;27;19916;-66
2022/10/05 06:53:27;;;;;;;;;;;19.50;63.70;;;;;;5097185;28;19925;-68
2022/10/05 06:58:53;;;;;;;;;;;19.50;63.40;;;;;;5067728;28;20376;-67
2022/10/05 07:04:08;;;;;;;;;;;19.60;63.70;;;;;;5071485;28;19925;-68
2022/10/05 07:09:35;;;;;;;;;;;19.70;63.40;;;;;;5067493;28;19917;-70
2022/10/05 07:12:20;;;;;;;;;;;19.70;63.30;;;;;;5086207;28;19931;-68
2022/10/05 07:14:55;;;;;;;;;;;19.70;63.20;;;;;;5066220;28;19921;-68
2022/10/05 07:17:43;;;;;;;;;;;19.70;62.90;;;;;;5066524;28;19929;-68
2022/10/05 07:23:23;;;;;;;;;;;19.70;63.00;;;;;;5055955;28;19921;-67
2022/10/05 07:28:48;;;;;;;;;;;19.80;62.90;;;;;;5085336;27;1861272;-68
2022/10/05 07:31:20;;;;;;;;;;;19.80;63.10;;;;;;5130090;27;19966;-68
2022/10/05 07:34:05;;;;;;;;;;;19.80;63.30;;;;;;5115965;27;19920;-67
2022/10/05 07:39:43;;;;;;;;;;;19.90;63.20;;;;;;5125454;27;19998;-67
2022/10/05 07:42:29;;;;;;;;;;;19.90;63.10;;;;;;5126832;27;20408;-68
2022/10/05 07:44:59;;;;;;;;;;;19.90;63.20;;;;;;5124257;27;20277;-67
2022/10/05 07:50:13;;;;;;;;;;;19.90;63.20;;;;;;5076548;27;19923;-65
2022/10/05 07:52:39;;;;;;;;;;;19.90;63.10;;;;;;5055329;28;20172;-67
2022/10/05 07:55:12;;;;;;;;;;;19.90;63.30;;;;;;5053462;28;20256;-66
2022/10/05 07:57:40;;;;;;;;;;;19.90;63.10;;;;;;5036292;28;20032;-66
2022/10/05 08:02:49;;;;;;;;;;;19.90;63.20;;;;;;5065536;28;19931;-66
2022/10/05 08:05:31;;;;;;;;;;;19.90;63.10;;;;;;5041324;28;20317;-67
2022/10/05 08:08:03;;;;;;;;;;;19.90;63.40;;;;;;5040774;28;19925;-66
2022/10/05 08:10:32;;;;;;;;;;;19.90;63.50;;;;;;5032927;28;20011;-66
2022/10/05 08:13:06;;;;;;;;;;;19.90;63.50;;;;;;5037746;28;19948;-66
2022/10/05 08:15:37;;;;;;;;;;;19.90;63.50;;;;;;5045181;28;20097;-66
2022/10/05 08:23:24;;;;;;;;;;;20.00;63.80;;;;;;5074087;28;20151;-68
2022/10/05 08:28:37;;;;;;;;;;;20.00;63.50;;;;;;5093731;27;19928;-68
2022/10/05 08:31:08;;;;;;;;;;;20.00;63.40;;;;;;5073393;28;19921;-69
2022/10/05 08:33:37;;;;;;;;;;;20.00;63.30;;;;;;5054596;28;19932;-66
2022/10/05 08:36:06;;;;;;;;;;;20.00;63.20;;;;;;5068729;28;20001;-66
2022/10/05 08:38:32;;;;;;;;;;;20.00;63.60;;;;;;5054799;28;19928;-66
2022/10/05 08:46:30;;;;;;;;;;;19.90;63.90;;;;;;5073257;27;20400;-66
2022/10/05 08:49:08;;;;;;;;;;;20.10;64.30;;;;;;5072411;28;20310;-69
2022/10/05 08:54:21;;;;;;;;;;;20.10;64.50;;;;;;5091418;27;1888920;-67
2022/10/05 08:57:06;;;;;;;;;;;20.20;64.70;;;;;;5128247;27;20034;-67
2022/10/05 09:05:01;;;;;;;;;;;20.30;64.50;;;;;;5067600;28;20296;-67
2022/10/05 09:13:23;;;;;;;;;;;20.30;64.10;;;;;;5056456;28;19935;-69
2022/10/05 09:18:44;;;;;;;;;;;20.30;64.00;;;;;;5105334;27;19927;-67
2022/10/05 09:21:23;;;;;;;;;;;20.30;63.60;;;;;;5107759;28;19924;-69
2022/10/05 09:23:58;;;;;;;;;;;20.30;63.90;;;;;;5112510;28;19955;-67
2022/10/05 09:26:43;;;;;;;;;;;20.30;63.60;;;;;;5109433;28;19920;-66
2022/10/05 09:29:29;;;;;;;;;;;20.30;63.20;;;;;;5105607;28;19927;-66
2022/10/05 09:32:07;;;;;;;;;;;20.30;63.30;;;;;;5105054;28;19927;-68
2022/10/05 09:34:54;;;;;;;;;;;20.30;63.30;;;;;;5104956;28;20044;-67
2022/10/05 09:40:20;;;;;;;;;;;20.30;62.70;;;;;;5081902;27;19927;-69
2022/10/05 09:45:47;;;;;;;;;;;20.40;62.60;;;;;;5056109;28;19920;-66
2022/10/05 09:48:33;;;;;;;;;;;20.40;62.40;;;;;;5057132;28;19987;-71
2022/10/05 09:56:33;;;;;;;;;;;20.40;62.80;;;;;;5063868;28;20301;-69
2022/10/05 09:59:18;;;;;;;;;;;20.40;62.90;;;;;;5055436;28;20438;-67
2022/10/05 10:04:37;;;;;;;;;;;20.40;62.70;;;;;;5061369;28;19920;-65
2022/10/05 10:07:15;;;;;;;;;;;20.50;62.90;;;;;;5051630;28;19928;-66
2022/10/05 10:09:50;;;;;;;;;;;20.50;62.60;;;;;;5054709;28;19932;-66
2022/10/05 10:15:17;;;;;;;;;;;20.50;62.40;;;;;;5053504;28;20299;-66
2022/10/05 10:18:02;;;;;;;;;;;20.50;62.50;;;;;;5029991;28;20019;-66
2022/10/05 10:20:33;;;;;;;;;;;20.50;62.50;;;;;;5036027;28;20415;-66
2022/10/05 10:23:18;;;;;;;;;;;20.50;62.50;;;;;;5035755;28;19960;-66
2022/10/05 10:26:04;;;;;;;;;;;20.50;62.50;;;;;;5029974;28;19921;-68
2022/10/05 10:34:19;;;;;;;;;;;20.50;62.90;;;;;;5063580;28;19916;-69
2022/10/05 10:39:37;;;;;;;;;;;20.40;62.70;;;;;;5073600;28;19919;-69
2022/10/05 10:42:23;;;;;;;;;;;20.40;62.70;;;;;;5071731;28;19920;-69
2022/10/05 10:47:39;;;;;;;;;;;20.30;62.50;;;;;;5075347;28;19913;-69
2022/10/05 10:53:09;;;;;;;;;;;20.30;62.40;;;;;;5092899;27;19921;-69
2022/10/05 10:55:46;;;;;;;;;;;20.30;62.30;;;;;;5093084;28;19920;-69
2022/10/05 10:58:33;;;;;;;;;;;20.30;62.30;;;;;;5126450;27;19920;-69
2022/10/05 11:03:55;;;;;;;;;;;20.30;62.00;;;;;;5074572;28;19919;-68
2022/10/05 11:06:40;;;;;;;;;;;20.20;61.90;;;;;;5052615;28;20373;-69
2022/10/05 11:12:07;;;;;;;;;;;20.20;61.70;;;;;;5076146;28;19923;-68
2022/10/05 11:14:52;;;;;;;;;;;20.20;61.60;;;;;;5056263;28;20336;-68
2022/10/05 11:17:28;;;;;;;;;;;20.20;61.60;;;;;;5060512;28;19920;-68
2022/10/05 11:20:13;;;;;;;;;;;20.20;61.50;;;;;;5054150;28;20447;-69
2022/10/05 11:22:44;;;;;;;;;;;20.20;61.50;;;;;;5062384;28;19929;-69
2022/10/05 11:25:30;;;;;;;;;;;20.20;61.50;;;;;;5055039;28;20367;-69
2022/10/05 11:33:41;;;;;;;;;;;20.20;61.50;;;;;;5068401;28;19916;-69
2022/10/05 11:36:15;;;;;;;;;;;20.20;61.70;;;;;;5075592;28;19920;-67
2022/10/05 11:38:51;;;;;;;;;;;20.20;61.90;;;;;;5065109;28;20377;-67
2022/10/05 11:46:51;;;;;;;;;;;20.20;61.60;;;;;;5098442;27;19913;-66
2022/10/05 11:52:10;;;;;;;;;;;20.20;61.60;;;;;;5078101;28;19916;-69
2022/10/05 11:57:18;;;;;;;;;;;20.20;61.70;;;;;;5078817;28;20314;-69
2022/10/05 12:05:23;;;;;;;;;;;20.10;61.80;;;;;;5077973;28;19912;-69
2022/10/05 12:07:55;;;;;;;;;;;20.10;61.80;;;;;;5075293;28;19997;-69
2022/10/05 12:13:21;;;;;;;;;;;20.10;62.00;;;;;;5098507;27;19918;-69
2022/10/05 12:15:53;;;;;;;;;;;20.10;62.00;;;;;;5058625;28;20034;-69
2022/10/05 12:18:26;;;;;;;;;;;20.00;61.90;;;;;;5065354;28;19920;-69
2022/10/05 12:20:57;;;;;;;;;;;20.10;62.10;;;;;;5076087;28;19921;-69
2022/10/05 12:23:43;;;;;;;;;;;20.00;62.10;;;;;;5058365;28;19925;-70
2022/10/05 12:26:12;;;;;;;;;;;20.00;62.10;;;;;;5059590;28;20404;-70
2022/10/05 12:37:11;;;;;;;;;;;19.90;62.20;;;;;;5114814;27;1857230;-69
2022/10/05 12:50:33;;;;;;;;;;;19.90;62.20;;;;;;5078926;28;19912;-71
2022/10/05 12:53:03;;;;;;;;;;;19.90;62.20;;;;;;5059250;28;19924;-71
2022/10/05 12:58:15;;;;;;;;;;;19.90;62.20;;;;;;5094816;27;19913;-69
2022/10/05 13:00:47;;;;;;;;;;;19.80;62.20;;;;;;5079822;28;20343;-66
2022/10/05 13:03:23;;;;;;;;;;;19.80;63.00;;;;;;5066741;28;19965;-69
2022/10/05 13:06:09;;;;;;;;;;;19.90;62.30;;;;;;5064263;28;20274;-69
2022/10/05 13:08:40;;;;;;;;;;;19.90;62.30;;;;;;5083237;28;20518;-69
2022/10/05 13:11:25;;;;;;;;;;;19.90;62.40;;;;;;5079915;28;20348;-69
2022/10/05 13:14:01;;;;;;;;;;;19.80;62.30;;;;;;5065343;28;19924;-69
2022/10/05 13:22:09;;;;;;;;;;;19.80;62.30;;;;;;5066939;28;19935;-69
2022/10/05 13:24:55;;;;;;;;;;;19.80;62.30;;;;;;5049115;28;19960;-69
2022/10/05 13:27:23;;;;;;;;;;;19.90;62.40;;;;;;5043894;28;19979;-69
2022/10/05 13:29:55;;;;;;;;;;;19.80;62.40;;;;;;5048015;28;20396;-69
2022/10/05 13:32:40;;;;;;;;;;;19.80;62.30;;;;;;5043737;28;19921;-69
2022/10/05 13:38:01;;;;;;;;;;;19.80;62.30;;;;;;5087779;28;19917;-69
2022/10/05 13:40:32;;;;;;;;;;;19.90;62.40;;;;;;5085222;28;19943;-69
2022/10/05 13:45:43;;;;;;;;;;;19.80;62.30;;;;;;5089414;28;20318;-69
2022/10/05 13:48:28;;;;;;;;;;;19.90;62.30;;;;;;5087666;28;19920;-66
2022/10/05 13:51:00;;;;;;;;;;;19.90;62.30;;;;;;5087478;28;19921;-69
2022/10/05 13:53:34;;;;;;;;;;;19.80;62.20;;;;;;5089621;28;19932;-69
2022/10/05 13:56:20;;;;;;;;;;;19.90;62.30;;;;;;5088306;28;19946;-69
2022/10/05 13:58:49;;;;;;;;;;;19.90;62.30;;;;;;5089135;28;20147;-68
2022/10/05 14:01:21;;;;;;;;;;;19.90;62.30;;;;;;5087918;28;20395;-69
2022/10/05 14:04:03;;;;;;;;;;;19.80;62.20;;;;;;5086230;28;19924;-69
2022/10/05 14:06:29;;;;;;;;;;;19.90;62.30;;;;;;5087416;28;20314;-68
2022/10/05 14:08:56;;;;;;;;;;;19.90;62.30;;;;;;5087348;28;20444;-68
2022/10/05 14:16:48;;;;;;;;;;;19.90;62.40;;;;;;5089492;28;19917;-69
2022/10/05 14:19:17;;;;;;;;;;;19.90;62.30;;;;;;5087262;28;19920;-69
2022/10/05 14:21:52;;;;;;;;;;;19.90;62.40;;;;;;5088604;28;19924;-69
2022/10/05 14:24:19;;;;;;;;;;;19.90;62.40;;;;;;5088127;28;19920;-69
2022/10/05 14:26:52;;;;;;;;;;;19.90;62.40;;;;;;5088222;28;19978;-69
2022/10/05 14:29:22;;;;;;;;;;;19.90;62.40;;;;;;5088713;28;19974;-69
2022/10/05 14:32:07;;;;;;;;;;;19.90;62.40;;;;;;5087026;28;20380;-66
2022/10/05 14:34:34;;;;;;;;;;;19.90;62.40;;;;;;5088272;28;19925;-69
2022/10/05 14:37:16;;;;;;;;;;;19.90;62.40;;;;;;5088745;28;20276;-69
2022/10/05 14:39:42;;;;;;;;;;;19.90;62.40;;;;;;5089711;28;19921;-69
2022/10/05 14:42:13;;;;;;;;;;;19.80;62.40;;;;;;5089449;28;19927;-69
2022/10/05 14:44:39;;;;;;;;;;;19.90;62.50;;;;;;5089352;28;19920;-69
2022/10/05 14:47:14;;;;;;;;;;;19.90;62.50;;;;;;5070438;28;20289;-69
2022/10/05 14:49:47;;;;;;;;;;;19.80;62.40;;;;;;5087278;28;19924;-69
2022/10/05 14:52:28;;;;;;;;;;;19.90;62.50;;;;;;5087529;28;19969;-69
2022/10/05 14:54:59;;;;;;;;;;;19.90;62.40;;;;;;5087778;28;20380;-69
2022/10/05 14:57:32;;;;;;;;;;;19.80;62.40;;;;;;5089160;28;20444;-68
2022/10/05 15:00:02;;;;;;;;;;;19.80;62.40;;;;;;5088034;28;19970;-69
2022/10/05 15:05:30;;;;;;;;;;;19.90;62.50;;;;;;5089561;28;19919;-69
2022/10/05 15:10:57;;;;;;;;;;;19.90;62.50;;;;;;5089178;28;19919;-69
2022/10/05 15:13:26;;;;;;;;;;;19.90;62.50;;;;;;5088273;28;19924;-69
2022/10/05 15:15:55;;;;;;;;;;;19.80;62.50;;;;;;5088423;28;20419;-69
2022/10/05 15:18:26;;;;;;;;;;;19.90;62.50;;;;;;5088448;28;19920;-69
2022/10/05 15:20:57;;;;;;;;;;;19.90;62.50;;;;;;5088773;28;20377;-69
2022/10/05 15:23:34;;;;;;;;;;;19.80;62.50;;;;;;5088456;28;19924;-69
2022/10/05 15:28:53;;;;;;;;;;;19.90;62.60;;;;;;5089050;28;19913;-69
2022/10/05 15:34:00;;;;;;;;;;;19.80;62.60;;;;;;5127212;27;1868377;-69
2022/10/05 15:39:18;;;;;;;;;;;19.80;62.60;;;;;;5089849;28;19912;-69
2022/10/05 15:42:04;;;;;;;;;;;19.80;62.60;;;;;;5088562;28;20380;-69
2022/10/05 15:44:35;;;;;;;;;;;19.80;62.70;;;;;;5089499;28;19928;-69
2022/10/05 15:47:17;;;;;;;;;;;19.80;62.80;;;;;;5088174;28;19921;-69
2022/10/05 15:49:56;;;;;;;;;;;19.80;62.80;;;;;;5087476;28;19920;-69
2022/10/05 16:00:41;;;;;;;;;;;19.80;62.80;;;;;;5089925;28;19928;-69
2022/10/05 16:03:27;;;;;;;;;;;19.80;62.90;;;;;;5088316;28;19920;-69
2022/10/05 16:11:43;;;;;;;;;;;19.80;62.90;;;;;;5106917;27;19919;-69
2022/10/05 16:19:53;;;;;;;;;;;19.70;62.90;;;;;;5089185;28;20394;-68
2022/10/05 16:25:21;;;;;;;;;;;19.70;62.90;;;;;;5110215;27;19924;-66
2022/10/05 16:28:07;;;;;;;;;;;19.70;62.90;;;;;;5108211;28;20408;-67
2022/10/05 16:30:53;;;;;;;;;;;19.70;62.90;;;;;;5107695;28;19920;-67
2022/10/05 16:33:25;;;;;;;;;;;19.80;63.70;;;;;;5108702;28;19927;-67
2022/10/05 16:36:01;;;;;;;;;;;19.80;63.80;;;;;;5108716;28;19969;-66
2022/10/05 16:43:52;;;;;;;;;;;19.90;63.70;;;;;;5088902;28;19913;-65
2022/10/05 16:46:38;;;;;;;;;;;19.90;63.70;;;;;;5087506;28;19928;-69
2022/10/05 16:49:10;;;;;;;;;;;20.00;63.90;;;;;;5085545;28;19927;-69
2022/10/05 16:51:42;;;;;;;;;;;20.00;64.10;;;;;;5083635;28;19921;-66
2022/10/05 16:59:49;;;;;;;;;;;20.00;64.20;;;;;;5074154;28;19917;-74
2022/10/05 17:13:03;;;;;;;;;;;20.10;64.30;;;;;;5089143;28;19912;-69
2022/10/05 17:18:22;;;;;;;;;;;20.10;64.30;;;;;;5088957;28;19940;-67
2022/10/05 17:21:08;;;;;;;;;;;20.20;64.20;;;;;;5085164;28;19920;-66
2022/10/05 17:23:53;;;;;;;;;;;20.20;64.00;;;;;;5083864;28;19921;-66
2022/10/05 17:29:23;;;;;;;;;;;20.20;63.70;;;;;;5108848;27;19916;-66
2022/10/05 17:31:58;;;;;;;;;;;20.20;63.60;;;;;;5097072;28;20449;-66
2022/10/05 17:34:25;;;;;;;;;;;20.10;63.40;;;;;;5093551;28;19920;-66
2022/10/05 17:37:10;;;;;;;;;;;20.20;63.30;;;;;;5088424;28;20410;-66
2022/10/05 17:39:52;;;;;;;;;;;20.10;63.20;;;;;;5088246;28;19970;-66
2022/10/05 17:47:58;;;;;;;;;;;20.10;63.00;;;;;;5088132;28;19917;-69
2022/10/05 17:56:06;;;;;;;;;;;20.10;64.20;;;;;;5085919;28;19926;-65
2022/10/05 18:01:15;;;;;;;;;;;20.10;63.70;;;;;;5087172;28;19923;-68
2022/10/05 18:09:24;;;;;;;;;;;20.00;63.80;;;;;;5087955;28;19912;-68
2022/10/05 18:12:10;;;;;;;;;;;20.00;64.00;;;;;;5086965;28;19920;-68
2022/10/05 18:14:55;;;;;;;;;;;19.90;63.90;;;;;;5074589;28;19929;-69
2022/10/05 18:17:42;;;;;;;;;;;19.90;63.90;;;;;;5067145;28;19955;-70
2022/10/05 18:23:13;;;;;;;;;;;19.80;63.80;;;;;;5089432;28;19913;-68
2022/10/05 18:25:43;;;;;;;;;;;19.80;63.80;;;;;;5087738;28;19931;-68
2022/10/05 18:28:28;;;;;;;;;;;19.80;63.80;;;;;;5087360;28;19921;-68
2022/10/05 18:31:15;;;;;;;;;;;19.80;63.80;;;;;;5085878;28;19928;-68
2022/10/05 18:34:00;;;;;;;;;;;19.80;63.90;;;;;;5085118;28;19943;-68
2022/10/05 18:39:24;;;;;;;;;;;19.70;63.90;;;;;;5126811;27;1853149;-68
2022/10/05 18:41:56;;;;;;;;;;;19.70;63.80;;;;;;5173329;27;19944;-68
2022/10/05 18:47:26;;;;;;;;;;;19.70;63.80;;;;;;5088968;28;20305;-68
2022/10/05 18:55:31;;;;;;;;;;;19.70;63.80;;;;;;5088926;28;20288;-68
2022/10/05 19:00:56;;;;;;;;;;;19.70;63.90;;;;;;5126716;27;1866690;-68
2022/10/05 19:03:41;;;;;;;;;;;19.70;63.80;;;;;;5173692;27;19968;-68
2022/10/05 19:09:07;;;;;;;;;;;19.60;63.80;;;;;;5089082;28;20376;-68
2022/10/05 19:11:43;;;;;;;;;;;19.60;63.80;;;;;;5087208;28;19920;-68
2022/10/05 19:14:21;;;;;;;;;;;19.60;63.80;;;;;;5087814;28;19920;-68
2022/10/05 19:22:14;;;;;;;;;;;19.60;63.80;;;;;;5109483;27;19938;-68
2022/10/05 19:27:48;;;;;;;;;;;19.60;63.90;;;;;;5109731;27;20390;-68
2022/10/05 19:30:19;;;;;;;;;;;19.60;63.80;;;;;;5107391;28;19927;-68
2022/10/05 19:35:32;;;;;;;;;;;19.60;63.90;;;;;;5089163;28;19912;-68
2022/10/05 19:40:44;;;;;;;;;;;19.60;63.90;;;;;;5109930;27;19912;-70
2022/10/05 19:48:51;;;;;;;;;;;19.50;63.90;;;;;;5089036;28;19912;-68
2022/10/05 19:54:15;;;;;;;;;;;19.60;64.00;;;;;;5088867;28;19912;-68
2022/10/05 19:56:48;;;;;;;;;;;19.50;64.00;;;;;;5088004;28;19927;-68
2022/10/05 19:59:19;;;;;;;;;;;19.60;64.00;;;;;;5087918;28;19927;-69
2022/10/05 20:01:48;;;;;;;;;;;19.50;64.00;;;;;;5088124;28;20432;-68
2022/10/05 20:04:15;;;;;;;;;;;19.50;64.00;;;;;;5088037;28;20007;-68
2022/10/05 20:06:41;;;;;;;;;;;19.50;64.00;;;;;;5088253;28;20042;-68
2022/10/05 20:09:22;;;;;;;;;;;19.50;64.00;;;;;;5087533;28;20375;-68
2022/10/05 20:11:48;;;;;;;;;;;19.50;64.00;;;;;;5087236;28;19948;-68
2022/10/05 20:20:21;;;;;;;;;;;19.50;64.10;;;;;;5089164;28;20324;-68
2022/10/05 20:22:47;;;;;;;;;;;19.50;64.40;;;;;;5089156;28;19924;-68
2022/10/05 20:28:01;;;;;;;;;;;19.50;64.50;;;;;;5089325;28;19912;-68
2022/10/05 20:30:28;;;;;;;;;;;19.50;64.50;;;;;;5087419;28;19921;-68
2022/10/05 20:32:56;;;;;;;;;;;19.50;64.50;;;;;;5104457;28;19927;-68
2022/10/05 20:35:25;;;;;;;;;;;19.50;64.40;;;;;;5088167;28;19924;-68
2022/10/05 20:37:50;;;;;;;;;;;19.50;64.50;;;;;;5087920;28;19935;-67
2022/10/05 20:40:18;;;;;;;;;;;19.50;64.40;;;;;;5088751;28;20014;-68
2022/10/05 20:42:43;;;;;;;;;;;19.50;64.30;;;;;;5087702;28;19921;-68
2022/10/05 20:45:09;;;;;;;;;;;19.50;64.30;;;;;;5088193;28;19921;-69
2022/10/05 20:47:36;;;;;;;;;;;19.50;64.30;;;;;;5087828;28;19932;-68
2022/10/05 20:50:04;;;;;;;;;;;19.50;64.30;;;;;;5087290;28;20094;-68
2022/10/05 20:52:30;;;;;;;;;;;19.40;64.20;;;;;;5086989;28;19920;-68
2022/10/05 20:54:57;;;;;;;;;;;19.50;64.30;;;;;;5087480;28;19920;-68
2022/10/05 20:57:23;;;;;;;;;;;19.50;64.30;;;;;;5088774;28;20290;-68
2022/10/05 20:59:49;;;;;;;;;;;19.50;64.30;;;;;;5087535;28;19921;-68
2022/10/05 21:02:15;;;;;;;;;;;19.40;64.20;;;;;;5087401;28;20296;-68
2022/10/05 21:04:46;;;;;;;;;;;19.50;64.20;;;;;;5088923;28;19920;-68
2022/10/05 21:07:12;;;;;;;;;;;19.50;64.20;;;;;;5088666;28;20341;-70
2022/10/05 21:09:39;;;;;;;;;;;19.50;64.20;;;;;;5086864;28;19920;-68
2022/10/05 21:12:05;;;;;;;;;;;19.50;64.20;;;;;;5086821;28;19929;-68
2022/10/05 21:14:33;;;;;;;;;;;19.40;64.10;;;;;;5087113;28;19920;-68
2022/10/05 21:16:58;;;;;;;;;;;19.50;64.30;;;;;;5087124;28;19935;-68
2022/10/05 21:19:24;;;;;;;;;;;19.50;64.30;;;;;;5087078;28;19920;-68
2022/10/05 21:21:49;;;;;;;;;;;19.40;64.20;;;;;;5087198;28;20001;-68
2022/10/05 21:24:16;;;;;;;;;;;19.40;65.00;;;;;;5088555;28;20371;-68
2022/10/05 21:26:42;;;;;;;;;;;19.40;64.20;;;;;;5098024;28;19967;-68
2022/10/05 21:29:08;;;;;;;;;;;19.40;64.30;;;;;;5090263;28;20363;-68
2022/10/05 21:31:34;;;;;;;;;;;19.40;64.20;;;;;;5089958;28;19927;-68
2022/10/05 21:33:59;;;;;;;;;;;19.40;64.20;;;;;;5108018;28;19920;-68